sensor_id;sensor_type;location;lat;lon;timestamp;pressure;altitude;pressure_sealevel;temperature;humidity
34237;BME280;20501;45.956;13.632;2022-12-07T00:03:32;100395.25;;;12.32;58.84
34237;BME280;20501;45.956;13.632;2022-12-07T00:05:58;100395.53;;;11.46;59.65
34237;BME280;20501;45.956;13.632;2022-12-07T00:08:24;100394.13;;;11.88;60.37
34237;BME280;20501;45.956;13.632;2022-12-07T00:10:49;100393.47;;;12.04;59.75
34237;BME280;20501;45.956;13.632;2022-12-07T00:13:15;100385.16;;;12.60;58.25
34237;BME280;20501;45.956;13.632;2022-12-07T00:15:40;100392.09;;;11.54;61.32
34237;BME280;20501;45.956;13.632;2022-12-07T00:18:06;100392.88;;;12.11;59.24
34237;BME280;20501;45.956;13.632;2022-12-07T00:20:32;100390.47;;;12.07;55.52
34237;BME280;20501;45.956;13.632;2022-12-07T00:22:58;100382.91;;;10.52;65.08
34237;BME280;20501;45.956;13.632;2022-12-07T00:25:24;100381.56;;;11.23;62.45
34237;BME280;20501;45.956;13.632;2022-12-07T00:27:50;100387.06;;;12.23;59.46
34237;BME280;20501;45.956;13.632;2022-12-07T00:30:15;100381.59;;;12.60;57.24
34237;BME280;20501;45.956;13.632;2022-12-07T00:32:40;100382.56;;;12.32;56.17
34237;BME280;20501;45.956;13.632;2022-12-07T00:35:06;100384.06;;;12.71;57.61
34237;BME280;20501;45.956;13.632;2022-12-07T00:37:32;100392.72;;;12.30;58.75
34237;BME280;20501;45.956;13.632;2022-12-07T00:39:57;100384.03;;;11.44;57.68
34237;BME280;20501;45.956;13.632;2022-12-07T00:42:23;100384.13;;;10.77;63.22
34237;BME280;20501;45.956;13.632;2022-12-07T00:44:48;100370.75;;;10.86;61.91
34237;BME280;20501;45.956;13.632;2022-12-07T00:47:13;100381.63;;;11.87;60.35
34237;BME280;20501;45.956;13.632;2022-12-07T00:49:39;100377.81;;;11.80;59.86
34237;BME280;20501;45.956;13.632;2022-12-07T00:52:04;100376.69;;;12.37;57.96
34237;BME280;20501;45.956;13.632;2022-12-07T00:54:30;100373.59;;;11.96;59.57
34237;BME280;20501;45.956;13.632;2022-12-07T00:56:55;100368.47;;;12.47;58.27
34237;BME280;20501;45.956;13.632;2022-12-07T00:59:21;100381.09;;;12.02;57.84
34237;BME280;20501;45.956;13.632;2022-12-07T01:01:46;100377.16;;;11.50;60.27
34237;BME280;20501;45.956;13.632;2022-12-07T01:04:12;100374.41;;;11.60;59.49
34237;BME280;20501;45.956;13.632;2022-12-07T01:06:38;100378.44;;;11.28;60.95
34237;BME280;20501;45.956;13.632;2022-12-07T01:09:03;100382.06;;;11.83;59.44
34237;BME280;20501;45.956;13.632;2022-12-07T01:11:30;100378.88;;;12.15;58.52
34237;BME280;20501;45.956;13.632;2022-12-07T01:13:57;100384.69;;;12.02;58.00
34237;BME280;20501;45.956;13.632;2022-12-07T01:16:24;100389.16;;;12.12;54.75
34237;BME280;20501;45.956;13.632;2022-12-07T01:18:52;100383.50;;;12.41;58.49
34237;BME280;20501;45.956;13.632;2022-12-07T01:21:26;100381.66;;;12.68;57.49
34237;BME280;20501;45.956;13.632;2022-12-07T01:23:52;100380.69;;;12.33;58.63
34237;BME280;20501;45.956;13.632;2022-12-07T01:26:23;100379.50;;;12.09;56.52
34237;BME280;20501;45.956;13.632;2022-12-07T01:28:49;100377.47;;;12.74;57.31
34237;BME280;20501;45.956;13.632;2022-12-07T01:31:17;100366.03;;;10.88;61.06
34237;BME280;20501;45.956;13.632;2022-12-07T01:33:46;100380.47;;;12.26;58.93
34237;BME280;20501;45.956;13.632;2022-12-07T01:36:25;100376.31;;;11.68;60.36
34237;BME280;20501;45.956;13.632;2022-12-07T01:38:57;100369.81;;;12.25;55.97
34237;BME280;20501;45.956;13.632;2022-12-07T01:41:34;100369.63;;;11.16;56.55
34237;BME280;20501;45.956;13.632;2022-12-07T01:52:12;100366.72;;;12.19;58.66
34237;BME280;20501;45.956;13.632;2022-12-07T01:54:38;100358.09;;;12.42;55.92
34237;BME280;20501;45.956;13.632;2022-12-07T01:57:04;100360.78;;;11.24;55.89
34237;BME280;20501;45.956;13.632;2022-12-07T01:59:31;100357.00;;;10.79;60.36
34237;BME280;20501;45.956;13.632;2022-12-07T02:01:56;100363.59;;;11.60;60.54
34237;BME280;20501;45.956;13.632;2022-12-07T02:04:22;100356.72;;;12.38;58.45
34237;BME280;20501;45.956;13.632;2022-12-07T02:06:49;100356.38;;;10.95;59.98
34237;BME280;20501;45.956;13.632;2022-12-07T02:09:15;100359.22;;;12.13;58.90
34237;BME280;20501;45.956;13.632;2022-12-07T02:11:41;100356.69;;;11.84;59.38
34237;BME280;20501;45.956;13.632;2022-12-07T02:14:06;100353.09;;;12.56;57.78
34237;BME280;20501;45.956;13.632;2022-12-07T02:19:38;100353.25;;;12.10;59.01
34237;BME280;20501;45.956;13.632;2022-12-07T02:25:26;100346.88;;;10.81;60.76
34237;BME280;20501;45.956;13.632;2022-12-07T02:30:47;100342.44;;;10.80;58.42
34237;BME280;20501;45.956;13.632;2022-12-07T02:33:27;100342.81;;;11.51;56.71
34237;BME280;20501;45.956;13.632;2022-12-07T02:36:13;100343.63;;;11.61;59.13
34237;BME280;20501;45.956;13.632;2022-12-07T02:39:23;100338.09;;;11.07;60.33
34237;BME280;20501;45.956;13.632;2022-12-07T02:41:55;100338.22;;;11.97;59.34
34237;BME280;20501;45.956;13.632;2022-12-07T02:44:25;100336.41;;;11.98;56.91
34237;BME280;20501;45.956;13.632;2022-12-07T02:47:01;100330.50;;;12.20;58.06
34237;BME280;20501;45.956;13.632;2022-12-07T02:49:29;100332.31;;;12.12;58.51
34237;BME280;20501;45.956;13.632;2022-12-07T02:51:55;100335.25;;;12.18;58.01
34237;BME280;20501;45.956;13.632;2022-12-07T02:54:21;100333.47;;;10.12;58.15
34237;BME280;20501;45.956;13.632;2022-12-07T03:08:15;100314.09;;;11.50;60.54
34237;BME280;20501;45.956;13.632;2022-12-07T03:10:54;100317.19;;;11.55;57.53
34237;BME280;20501;45.956;13.632;2022-12-07T03:16:15;100298.66;;;11.60;59.78
34237;BME280;20501;45.956;13.632;2022-12-07T03:18:49;100292.38;;;11.59;59.49
34237;BME280;20501;45.956;13.632;2022-12-07T03:21:25;100293.34;;;11.40;56.72
34237;BME280;20501;45.956;13.632;2022-12-07T03:23:56;100294.44;;;11.84;57.60
34237;BME280;20501;45.956;13.632;2022-12-07T03:26:24;100288.97;;;11.75;53.72
34237;BME280;20501;45.956;13.632;2022-12-07T03:28:56;100288.44;;;11.54;57.32
34237;BME280;20501;45.956;13.632;2022-12-07T03:31:31;100286.78;;;12.33;57.52
34237;BME280;20501;45.956;13.632;2022-12-07T03:34:21;100283.41;;;11.13;59.86
34237;BME280;20501;45.956;13.632;2022-12-07T03:39:38;100283.56;;;12.38;57.35
34237;BME280;20501;45.956;13.632;2022-12-07T03:42:07;100286.06;;;12.58;56.92
34237;BME280;20501;45.956;13.632;2022-12-07T03:44:35;100286.97;;;11.77;57.61
34237;BME280;20501;45.956;13.632;2022-12-07T03:47:11;100283.44;;;12.21;56.54
34237;BME280;20501;45.956;13.632;2022-12-07T03:57:45;100281.25;;;11.63;59.06
34237;BME280;20501;45.956;13.632;2022-12-07T04:00:13;100283.94;;;12.43;57.26
34237;BME280;20501;45.956;13.632;2022-12-07T04:02:39;100269.84;;;11.95;58.19
34237;BME280;20501;45.956;13.632;2022-12-07T04:05:05;100286.63;;;9.94;63.06
34237;BME280;20501;45.956;13.632;2022-12-07T04:07:31;100283.69;;;10.92;61.57
34237;BME280;20501;45.956;13.632;2022-12-07T04:09:56;100279.63;;;11.88;57.49
34237;BME280;20501;45.956;13.632;2022-12-07T04:12:23;100273.25;;;11.97;58.55
34237;BME280;20501;45.956;13.632;2022-12-07T04:14:48;100277.78;;;12.33;57.25
34237;BME280;20501;45.956;13.632;2022-12-07T04:17:13;100275.94;;;12.33;57.10
34237;BME280;20501;45.956;13.632;2022-12-07T04:19:39;100270.84;;;12.65;56.29
34237;BME280;20501;45.956;13.632;2022-12-07T04:22:05;100269.94;;;11.49;58.72
34237;BME280;20501;45.956;13.632;2022-12-07T04:24:31;100281.09;;;11.64;58.92
34237;BME280;20501;45.956;13.632;2022-12-07T04:26:57;100268.47;;;11.37;57.20
34237;BME280;20501;45.956;13.632;2022-12-07T04:29:23;100268.69;;;12.16;54.70
34237;BME280;20501;45.956;13.632;2022-12-07T04:31:48;100270.03;;;12.38;56.77
34237;BME280;20501;45.956;13.632;2022-12-07T04:34:16;100269.84;;;12.66;56.29
34237;BME280;20501;45.956;13.632;2022-12-07T04:36:42;100259.03;;;12.13;53.15
34237;BME280;20501;45.956;13.632;2022-12-07T04:39:17;100266.94;;;12.33;56.85
34237;BME280;20501;45.956;13.632;2022-12-07T04:41:43;100270.41;;;10.98;57.93
34237;BME280;20501;45.956;13.632;2022-12-07T04:44:08;100268.56;;;11.45;59.47
34237;BME280;20501;45.956;13.632;2022-12-07T04:46:34;100274.72;;;11.91;55.32
34237;BME280;20501;45.956;13.632;2022-12-07T04:48:59;100270.47;;;12.51;56.69
34237;BME280;20501;45.956;13.632;2022-12-07T04:51:27;100280.50;;;9.91;57.47
34237;BME280;20501;45.956;13.632;2022-12-07T04:53:53;100285.50;;;11.65;59.55
34237;BME280;20501;45.956;13.632;2022-12-07T04:56:19;100279.78;;;11.68;58.48
34237;BME280;20501;45.956;13.632;2022-12-07T04:58:46;100274.56;;;9.88;63.18
34237;BME280;20501;45.956;13.632;2022-12-07T05:01:13;100273.78;;;8.66;60.17
34237;BME280;20501;45.956;13.632;2022-12-07T05:03:39;100279.72;;;10.48;60.69
34237;BME280;20501;45.956;13.632;2022-12-07T05:06:06;100272.28;;;9.73;64.20
34237;BME280;20501;45.956;13.632;2022-12-07T05:08:32;100278.13;;;11.21;59.81
34237;BME280;20501;45.956;13.632;2022-12-07T05:10:58;100271.88;;;11.93;58.01
34237;BME280;20501;45.956;13.632;2022-12-07T05:13:23;100261.16;;;12.28;54.54
34237;BME280;20501;45.956;13.632;2022-12-07T05:15:49;100263.19;;;12.26;56.85
34237;BME280;20501;45.956;13.632;2022-12-07T05:18:15;100262.16;;;11.64;56.95
34237;BME280;20501;45.956;13.632;2022-12-07T05:20:41;100273.25;;;11.97;56.40
34237;BME280;20501;45.956;13.632;2022-12-07T05:23:07;100264.69;;;11.84;57.90
34237;BME280;20501;45.956;13.632;2022-12-07T05:25:33;100283.31;;;11.51;57.19
34237;BME280;20501;45.956;13.632;2022-12-07T05:27:58;100278.41;;;12.27;56.88
34237;BME280;20501;45.956;13.632;2022-12-07T05:30:25;100277.94;;;9.21;62.90
34237;BME280;20501;45.956;13.632;2022-12-07T05:32:51;100279.38;;;11.63;58.78
34237;BME280;20501;45.956;13.632;2022-12-07T05:35:17;100264.53;;;11.85;57.89
34237;BME280;20501;45.956;13.632;2022-12-07T05:37:43;100265.56;;;12.02;57.50
34237;BME280;20501;45.956;13.632;2022-12-07T05:40:10;100269.19;;;11.93;54.66
34237;BME280;20501;45.956;13.632;2022-12-07T05:42:36;100281.50;;;11.23;59.25
34237;BME280;20501;45.956;13.632;2022-12-07T05:45:02;100272.00;;;10.91;59.25
34237;BME280;20501;45.956;13.632;2022-12-07T05:47:28;100274.50;;;11.30;60.03
34237;BME280;20501;45.956;13.632;2022-12-07T05:49:53;100279.78;;;11.04;57.13
34237;BME280;20501;45.956;13.632;2022-12-07T05:52:19;100279.25;;;11.01;60.56
34237;BME280;20501;45.956;13.632;2022-12-07T05:54:44;100275.91;;;11.07;58.43
34237;BME280;20501;45.956;13.632;2022-12-07T05:57:10;100278.38;;;12.18;56.78
34237;BME280;20501;45.956;13.632;2022-12-07T05:59:36;100278.75;;;10.49;54.40
34237;BME280;20501;45.956;13.632;2022-12-07T06:02:05;100274.28;;;11.78;57.66
34237;BME280;20501;45.956;13.632;2022-12-07T06:04:33;100282.78;;;11.47;55.73
34237;BME280;20501;45.956;13.632;2022-12-07T06:06:59;100276.34;;;11.12;59.85
34237;BME280;20501;45.956;13.632;2022-12-07T06:09:26;100277.38;;;11.83;57.24
34237;BME280;20501;45.956;13.632;2022-12-07T06:11:52;100282.34;;;12.06;57.08
34237;BME280;20501;45.956;13.632;2022-12-07T06:14:36;100280.47;;;12.33;56.46
34237;BME280;20501;45.956;13.632;2022-12-07T06:17:02;100277.44;;;11.73;57.45
34237;BME280;20501;45.956;13.632;2022-12-07T06:19:27;100280.38;;;12.43;56.14
34237;BME280;20501;45.956;13.632;2022-12-07T06:21:53;100285.75;;;12.61;55.22
34237;BME280;20501;45.956;13.632;2022-12-07T06:24:19;100278.75;;;10.30;60.92
34237;BME280;20501;45.956;13.632;2022-12-07T06:26:44;100286.22;;;10.93;60.61
34237;BME280;20501;45.956;13.632;2022-12-07T06:29:11;100284.03;;;10.79;60.99
34237;BME280;20501;45.956;13.632;2022-12-07T06:31:37;100282.41;;;10.58;55.15
34237;BME280;20501;45.956;13.632;2022-12-07T06:34:05;100286.44;;;11.92;57.74
34237;BME280;20501;45.956;13.632;2022-12-07T06:36:31;100281.00;;;11.92;57.18
34237;BME280;20501;45.956;13.632;2022-12-07T06:38:57;100281.63;;;11.86;56.81
34237;BME280;20501;45.956;13.632;2022-12-07T06:41:23;100285.97;;;10.87;60.12
34237;BME280;20501;45.956;13.632;2022-12-07T06:43:49;100287.94;;;10.94;56.95
34237;BME280;20501;45.956;13.632;2022-12-07T06:46:15;100285.53;;;10.53;60.57
34237;BME280;20501;45.956;13.632;2022-12-07T06:48:41;100280.28;;;11.36;58.80
34237;BME280;20501;45.956;13.632;2022-12-07T06:51:07;100280.75;;;10.37;54.99
34237;BME280;20501;45.956;13.632;2022-12-07T06:53:32;100295.56;;;11.73;57.73
34237;BME280;20501;45.956;13.632;2022-12-07T06:55:58;100295.28;;;11.30;54.38
34237;BME280;20501;45.956;13.632;2022-12-07T06:58:23;100291.59;;;10.08;59.23
34237;BME280;20501;45.956;13.632;2022-12-07T07:00:49;100294.00;;;10.01;61.47
34237;BME280;20501;45.956;13.632;2022-12-07T07:03:17;100293.09;;;10.20;57.34
34237;BME280;20501;45.956;13.632;2022-12-07T07:05:43;100294.16;;;10.67;59.63
34237;BME280;20501;45.956;13.632;2022-12-07T07:08:10;100296.72;;;11.06;54.89
34237;BME280;20501;45.956;13.632;2022-12-07T07:10:36;100295.09;;;11.13;58.24
34237;BME280;20501;45.956;13.632;2022-12-07T07:13:03;100297.59;;;10.59;60.67
34237;BME280;20501;45.956;13.632;2022-12-07T07:15:29;100299.59;;;11.23;58.74
34237;BME280;20501;45.956;13.632;2022-12-07T07:17:54;100295.00;;;11.51;57.97
34237;BME280;20501;45.956;13.632;2022-12-07T07:20:20;100297.38;;;11.72;57.79
34237;BME280;20501;45.956;13.632;2022-12-07T07:22:46;100306.13;;;11.48;57.10
34237;BME280;20501;45.956;13.632;2022-12-07T07:25:11;100295.38;;;11.74;53.74
34237;BME280;20501;45.956;13.632;2022-12-07T07:27:37;100298.09;;;11.38;55.29
34237;BME280;20501;45.956;13.632;2022-12-07T07:30:03;100306.28;;;11.83;56.92
34237;BME280;20501;45.956;13.632;2022-12-07T07:32:28;100303.81;;;12.26;56.25
34237;BME280;20501;45.956;13.632;2022-12-07T07:34:54;100304.59;;;11.82;57.62
34237;BME280;20501;45.956;13.632;2022-12-07T07:37:19;100303.41;;;11.48;56.95
34237;BME280;20501;45.956;13.632;2022-12-07T07:39:45;100299.53;;;10.19;56.22
34237;BME280;20501;45.956;13.632;2022-12-07T07:42:10;100309.88;;;10.04;57.13
34237;BME280;20501;45.956;13.632;2022-12-07T07:44:36;100306.34;;;12.53;51.91
34237;BME280;20501;45.956;13.632;2022-12-07T07:47:02;100310.03;;;10.80;54.37
34237;BME280;20501;45.956;13.632;2022-12-07T07:49:27;100309.00;;;10.53;61.40
34237;BME280;20501;45.956;13.632;2022-12-07T07:51:53;100315.38;;;11.27;56.53
34237;BME280;20501;45.956;13.632;2022-12-07T07:54:18;100314.69;;;14.30;51.31
34237;BME280;20501;45.956;13.632;2022-12-07T07:56:43;100319.09;;;15.75;43.90
34237;BME280;20501;45.956;13.632;2022-12-07T07:59:09;100324.38;;;16.23;41.71
34237;BME280;20501;45.956;13.632;2022-12-07T08:01:34;100328.50;;;16.58;44.42
34237;BME280;20501;45.956;13.632;2022-12-07T08:04:00;100324.19;;;14.01;46.30
34237;BME280;20501;45.956;13.632;2022-12-07T08:06:26;100322.91;;;15.35;47.67
34237;BME280;20501;45.956;13.632;2022-12-07T08:08:52;100322.13;;;14.28;49.69
34237;BME280;20501;45.956;13.632;2022-12-07T08:11:17;100322.66;;;14.32;48.92
34237;BME280;20501;45.956;13.632;2022-12-07T08:13:45;100314.03;;;13.36;52.34
34237;BME280;20501;45.956;13.632;2022-12-07T08:16:10;100314.59;;;12.70;52.72
34237;BME280;20501;45.956;13.632;2022-12-07T08:18:40;100316.13;;;12.46;51.84
34237;BME280;20501;45.956;13.632;2022-12-07T08:21:07;100320.97;;;12.87;54.14
34237;BME280;20501;45.956;13.632;2022-12-07T08:23:33;100318.03;;;13.23;53.62
34237;BME280;20501;45.956;13.632;2022-12-07T08:32:47;100319.41;;;13.19;53.79
34237;BME280;20501;45.956;13.632;2022-12-07T08:35:13;100330.09;;;11.97;55.31
34237;BME280;20501;45.956;13.632;2022-12-07T08:37:39;100333.81;;;12.32;56.40
34237;BME280;20501;45.956;13.632;2022-12-07T08:40:06;100324.84;;;11.96;52.41
34237;BME280;20501;45.956;13.632;2022-12-07T08:42:32;100326.88;;;11.29;53.99
34237;BME280;20501;45.956;13.632;2022-12-07T08:45:06;100335.34;;;12.35;56.34
34237;BME280;20501;45.956;13.632;2022-12-07T08:47:34;100328.16;;;12.70;54.96
34237;BME280;20501;45.956;13.632;2022-12-07T08:50:02;100332.56;;;13.06;53.10
34237;BME280;20501;45.956;13.632;2022-12-07T08:52:31;100330.22;;;13.54;53.05
34237;BME280;20501;45.956;13.632;2022-12-07T08:54:58;100333.00;;;13.27;50.24
34237;BME280;20501;45.956;13.632;2022-12-07T08:57:25;100335.47;;;12.25;52.47
34237;BME280;20501;45.956;13.632;2022-12-07T08:59:51;100339.16;;;12.68;52.21
34237;BME280;20501;45.956;13.632;2022-12-07T09:02:17;100340.06;;;12.33;52.41
34237;BME280;20501;45.956;13.632;2022-12-07T09:04:42;100349.81;;;12.44;55.70
34237;BME280;20501;45.956;13.632;2022-12-07T09:07:08;100345.16;;;12.80;54.47
34237;BME280;20501;45.956;13.632;2022-12-07T09:09:34;100345.78;;;13.00;53.09
34237;BME280;20501;45.956;13.632;2022-12-07T09:11:59;100349.97;;;13.89;52.25
34237;BME280;20501;45.956;13.632;2022-12-07T09:14:25;100346.97;;;14.25;51.46
34237;BME280;20501;45.956;13.632;2022-12-07T09:16:50;100346.94;;;14.08;50.13
34237;BME280;20501;45.956;13.632;2022-12-07T09:19:16;100340.63;;;13.75;50.32
34237;BME280;20501;45.956;13.632;2022-12-07T09:21:41;100351.69;;;13.98;51.71
34237;BME280;20501;45.956;13.632;2022-12-07T09:24:07;100341.69;;;14.07;51.51
34237;BME280;20501;45.956;13.632;2022-12-07T09:26:32;100348.97;;;13.82;51.29
34237;BME280;20501;45.956;13.632;2022-12-07T09:28:57;100344.38;;;13.90;51.96
34237;BME280;20501;45.956;13.632;2022-12-07T09:31:23;100346.19;;;13.73;51.40
34237;BME280;20501;45.956;13.632;2022-12-07T09:33:56;100350.03;;;12.50;54.08
34237;BME280;20501;45.956;13.632;2022-12-07T09:36:22;100347.16;;;13.13;52.70
34237;BME280;20501;45.956;13.632;2022-12-07T09:38:48;100341.16;;;12.93;51.02
34237;BME280;20501;45.956;13.632;2022-12-07T09:41:13;100339.69;;;13.07;50.15
34237;BME280;20501;45.956;13.632;2022-12-07T09:43:40;100345.66;;;12.84;50.61
34237;BME280;20501;45.956;13.632;2022-12-07T09:46:10;100334.94;;;12.74;50.38
34237;BME280;20501;45.956;13.632;2022-12-07T09:48:38;100336.03;;;13.67;53.01
34237;BME280;20501;45.956;13.632;2022-12-07T09:51:21;100334.03;;;14.11;52.00
34237;BME280;20501;45.956;13.632;2022-12-07T09:53:47;100326.69;;;13.78;50.08
34237;BME280;20501;45.956;13.632;2022-12-07T09:56:15;100324.00;;;14.03;49.63
34237;BME280;20501;45.956;13.632;2022-12-07T09:58:42;100322.47;;;14.42;47.51
34237;BME280;20501;45.956;13.632;2022-12-07T10:06:32;100329.59;;;13.76;50.23
34237;BME280;20501;45.956;13.632;2022-12-07T10:08:57;100328.41;;;13.71;49.58
34237;BME280;20501;45.956;13.632;2022-12-07T10:11:23;100328.44;;;14.04;50.40
34237;BME280;20501;45.956;13.632;2022-12-07T10:13:51;100318.75;;;13.93;49.60
34237;BME280;20501;45.956;13.632;2022-12-07T10:18:51;100320.78;;;14.32;48.10
34237;BME280;20501;45.956;13.632;2022-12-07T10:21:22;100317.25;;;14.07;51.70
34237;BME280;20501;45.956;13.632;2022-12-07T10:24:04;100318.06;;;14.32;49.61
34237;BME280;20501;45.956;13.632;2022-12-07T10:26:38;100307.72;;;13.86;49.70
34237;BME280;20501;45.956;13.632;2022-12-07T10:29:15;100312.59;;;13.58;50.97
34237;BME280;20501;45.956;13.632;2022-12-07T10:31:42;100307.91;;;14.01;49.97
34237;BME280;20501;45.956;13.632;2022-12-07T10:34:22;100306.53;;;14.30;50.57
34237;BME280;20501;45.956;13.632;2022-12-07T10:36:50;100298.19;;;14.32;49.19
34237;BME280;20501;45.956;13.632;2022-12-07T10:39:18;100295.34;;;14.00;51.61
34237;BME280;20501;45.956;13.632;2022-12-07T10:41:57;100289.69;;;13.60;49.46
34237;BME280;20501;45.956;13.632;2022-12-07T10:44:31;100289.03;;;14.41;48.64
34237;BME280;20501;45.956;13.632;2022-12-07T10:47:36;100285.78;;;14.46;48.48
34237;BME280;20501;45.956;13.632;2022-12-07T11:03:30;100272.56;;;13.85;50.20
34237;BME280;20501;45.956;13.632;2022-12-07T11:14:33;100267.34;;;14.08;48.92
34237;BME280;20501;45.956;13.632;2022-12-07T11:17:07;100260.69;;;14.19;49.64
34237;BME280;20501;45.956;13.632;2022-12-07T11:19:55;100262.19;;;14.21;49.37
34237;BME280;20501;45.956;13.632;2022-12-07T11:22:35;100262.91;;;14.07;48.55
34237;BME280;20501;45.956;13.632;2022-12-07T11:31:14;100240.63;;;14.28;46.87
34237;BME280;20501;45.956;13.632;2022-12-07T11:33:48;100237.19;;;14.67;47.13
34237;BME280;20501;45.956;13.632;2022-12-07T11:36:35;100232.91;;;14.73;46.41
34237;BME280;20501;45.956;13.632;2022-12-07T11:39:08;100231.88;;;14.66;48.64
34237;BME280;20501;45.956;13.632;2022-12-07T11:41:55;100235.59;;;14.81;47.07
34237;BME280;20501;45.956;13.632;2022-12-07T11:44:33;100227.25;;;14.83;45.98
34237;BME280;20501;45.956;13.632;2022-12-07T11:47:07;100228.09;;;15.46;44.10
34237;BME280;20501;45.956;13.632;2022-12-07T11:50:25;100222.25;;;15.26;44.24
34237;BME280;20501;45.956;13.632;2022-12-07T11:53:15;100222.91;;;14.57;45.52
34237;BME280;20501;45.956;13.632;2022-12-07T11:56:07;100219.66;;;15.56;45.72
34237;BME280;20501;45.956;13.632;2022-12-07T12:06:32;100200.28;;;15.05;44.37
34237;BME280;20501;45.956;13.632;2022-12-07T12:09:18;100203.03;;;15.28;43.99
34237;BME280;20501;45.956;13.632;2022-12-07T12:25:48;100191.19;;;14.41;45.04
34237;BME280;20501;45.956;13.632;2022-12-07T12:31:11;100187.41;;;13.53;45.26
34237;BME280;20501;45.956;13.632;2022-12-07T12:33:43;100189.06;;;13.37;47.07
34237;BME280;20501;45.956;13.632;2022-12-07T12:46:44;100193.75;;;13.02;47.18
34237;BME280;20501;45.956;13.632;2022-12-07T12:54:58;100191.63;;;12.36;48.61
34237;BME280;20501;45.956;13.632;2022-12-07T12:57:31;100182.25;;;12.22;48.04
34237;BME280;20501;45.956;13.632;2022-12-07T12:59:58;100183.66;;;11.82;50.27
34237;BME280;20501;45.956;13.632;2022-12-07T13:02:38;100186.63;;;12.15;49.27
34237;BME280;20501;45.956;13.632;2022-12-07T13:18:02;100177.16;;;11.93;51.32
34237;BME280;20501;45.956;13.632;2022-12-07T13:26:49;100180.50;;;11.69;49.76
34237;BME280;20501;45.956;13.632;2022-12-07T13:29:15;100171.81;;;11.83;49.50
34237;BME280;20501;45.956;13.632;2022-12-07T13:31:49;100157.78;;;12.06;52.48
34237;BME280;20501;45.956;13.632;2022-12-07T13:37:14;100175.59;;;11.90;50.24
34237;BME280;20501;45.956;13.632;2022-12-07T13:39:52;100173.03;;;11.63;49.94
34237;BME280;20501;45.956;13.632;2022-12-07T13:44:47;100176.38;;;11.38;49.80
34237;BME280;20501;45.956;13.632;2022-12-07T13:47:17;100184.41;;;11.30;51.71
34237;BME280;20501;45.956;13.632;2022-12-07T13:49:51;100180.69;;;10.95;50.83
34237;BME280;20501;45.956;13.632;2022-12-07T13:57:24;100186.25;;;11.48;51.34
34237;BME280;20501;45.956;13.632;2022-12-07T13:59:50;100182.25;;;11.34;51.25
34237;BME280;20501;45.956;13.632;2022-12-07T14:02:28;100181.69;;;11.30;51.14
34237;BME280;20501;45.956;13.632;2022-12-07T14:05:14;100183.56;;;11.11;50.30
34237;BME280;20501;45.956;13.632;2022-12-07T14:13:59;100179.66;;;11.68;51.05
34237;BME280;20501;45.956;13.632;2022-12-07T14:18:56;100180.94;;;11.38;50.50
34237;BME280;20501;45.956;13.632;2022-12-07T14:21:27;100179.38;;;11.53;53.02
34237;BME280;20501;45.956;13.632;2022-12-07T14:26:43;100188.66;;;11.14;50.96
34237;BME280;20501;45.956;13.632;2022-12-07T14:31:54;100188.00;;;10.84;52.52
34237;BME280;20501;45.956;13.632;2022-12-07T14:34:21;100195.38;;;11.28;52.41
34237;BME280;20501;45.956;13.632;2022-12-07T14:36:47;100195.91;;;11.14;52.84
34237;BME280;20501;45.956;13.632;2022-12-07T14:39:12;100195.22;;;11.30;52.51
34237;BME280;20501;45.956;13.632;2022-12-07T14:41:38;100204.41;;;11.19;50.84
34237;BME280;20501;45.956;13.632;2022-12-07T14:44:15;100205.50;;;11.26;51.39
34237;BME280;20501;45.956;13.632;2022-12-07T14:46:41;100211.06;;;11.43;51.30
34237;BME280;20501;45.956;13.632;2022-12-07T14:49:06;100212.78;;;11.44;50.41
34237;BME280;20501;45.956;13.632;2022-12-07T14:51:32;100206.78;;;11.76;54.91
34237;BME280;20501;45.956;13.632;2022-12-07T14:53:59;100209.09;;;12.42;52.93
34237;BME280;20501;45.956;13.632;2022-12-07T14:56:25;100212.00;;;12.49;52.90
34237;BME280;20501;45.956;13.632;2022-12-07T14:58:50;100212.25;;;12.29;51.72
34237;BME280;20501;45.956;13.632;2022-12-07T15:01:16;100217.56;;;12.82;52.79
34237;BME280;20501;45.956;13.632;2022-12-07T15:03:41;100223.09;;;13.07;52.20
34237;BME280;20501;45.956;13.632;2022-12-07T15:06:07;100217.53;;;13.16;51.86
34237;BME280;20501;45.956;13.632;2022-12-07T15:08:33;100210.34;;;12.99;51.47
34237;BME280;20501;45.956;13.632;2022-12-07T15:10:58;100213.72;;;12.50;49.64
34237;BME280;20501;45.956;13.632;2022-12-07T15:13:24;100220.19;;;12.57;53.02
34237;BME280;20501;45.956;13.632;2022-12-07T15:16:13;100230.13;;;12.83;51.35
34237;BME280;20501;45.956;13.632;2022-12-07T15:18:39;100226.13;;;13.04;52.77
34237;BME280;20501;45.956;13.632;2022-12-07T15:21:05;100223.50;;;12.43;54.28
34237;BME280;20501;45.956;13.632;2022-12-07T15:23:30;100227.22;;;12.76;53.72
34237;BME280;20501;45.956;13.632;2022-12-07T15:25:56;100227.75;;;12.19;50.11
34237;BME280;20501;45.956;13.632;2022-12-07T15:28:22;100242.69;;;12.49;52.04
34237;BME280;20501;45.956;13.632;2022-12-07T15:30:47;100231.22;;;12.64;53.75
34237;BME280;20501;45.956;13.632;2022-12-07T15:33:13;100224.25;;;11.82;51.60
34237;BME280;20501;45.956;13.632;2022-12-07T15:35:43;100226.44;;;12.58;54.39
34237;BME280;20501;45.956;13.632;2022-12-07T15:38:09;100236.63;;;13.07;53.11
34237;BME280;20501;45.956;13.632;2022-12-07T15:40:35;100232.31;;;12.79;53.79